createdAt,value
2019-03-04T00:00:04.969Z,964.68
2019-03-04T00:01:04.978Z,964.59
2019-03-04T00:02:05.107Z,964.42
2019-03-04T00:03:05.197Z,964.62
2019-03-04T00:04:05.235Z,964.56
2019-03-04T00:05:04.685Z,964.56
2019-03-04T00:06:05.201Z,964.47
2019-03-04T00:07:05.145Z,964.45
2019-03-04T00:08:04.739Z,964.45
2019-03-04T00:09:05.116Z,964.53
2019-03-04T00:10:05.102Z,964.45
2019-03-04T00:11:05.082Z,964.39
2019-03-04T00:12:04.698Z,964.39
2019-03-04T00:13:04.883Z,964.25
2019-03-04T00:14:05.312Z,964.25
2019-03-04T00:15:05.298Z,964.39
2019-03-04T00:16:05.361Z,964.30
2019-03-04T00:17:04.518Z,964.39
2019-03-04T00:18:04.609Z,964.33
2019-03-04T00:19:04.955Z,964.36
2019-03-04T00:20:04.992Z,964.33
2019-03-04T00:21:05.133Z,964.39
2019-03-04T00:22:05.093Z,964.53
2019-03-04T00:23:05.111Z,964.36
2019-03-04T00:24:05.294Z,964.56
2019-03-04T00:25:05.319Z,964.36
2019-03-04T00:26:05.308Z,964.25
2019-03-04T00:27:04.432Z,964.25
2019-03-04T00:28:04.536Z,964.19
2019-03-04T00:29:04.597Z,964.19
2019-03-04T00:30:04.508Z,964.25
2019-03-04T00:31:04.510Z,964.28
2019-03-04T00:32:04.725Z,964.22
2019-03-04T00:33:05.298Z,964.14
2019-03-04T00:34:04.944Z,964.14
2019-03-04T00:35:04.924Z,964.14
2019-03-04T00:36:05.018Z,963.97
2019-03-04T00:37:04.923Z,963.94
2019-03-04T00:38:04.906Z,963.87
2019-03-04T00:39:05.303Z,963.84
2019-03-04T00:40:05.286Z,963.89
2019-03-04T00:41:05.281Z,963.87
2019-03-04T00:42:05.394Z,963.76
2019-03-04T00:43:05.455Z,963.73
2019-03-04T00:44:05.292Z,963.73
2019-03-04T00:45:05.317Z,963.85
2019-03-04T00:46:04.753Z,963.76
2019-03-04T00:47:04.823Z,963.73
2019-03-04T00:48:04.847Z,963.68
2019-03-04T00:49:05.439Z,963.74
2019-03-04T00:50:05.460Z,963.85
2019-03-04T00:51:05.308Z,963.65
2019-03-04T00:52:04.696Z,963.65
2019-03-04T00:53:04.816Z,963.68
2019-03-04T00:54:05.001Z,963.74
2019-03-04T00:55:05.312Z,963.74
2019-03-04T00:56:04.546Z,963.68
2019-03-04T00:57:04.898Z,963.65
2019-03-04T00:58:04.865Z,963.71
2019-03-04T00:59:04.873Z,963.65
2019-03-04T01:00:04.984Z,963.57
2019-03-04T01:01:05.309Z,963.37
2019-03-04T01:02:04.444Z,963.51
2019-03-04T01:03:05.273Z,963.51
2019-03-04T01:04:04.519Z,963.57
2019-03-04T01:05:05.027Z,963.54
2019-03-04T01:06:05.017Z,963.46
2019-03-04T01:07:05.122Z,963.46
2019-03-04T01:08:04.750Z,963.54
2019-03-04T01:09:04.757Z,963.54
2019-03-04T01:10:04.866Z,963.60
2019-03-04T01:11:05.028Z,963.57
2019-03-04T01:12:04.904Z,963.57
2019-03-04T01:13:05.432Z,963.52
2019-03-04T01:14:04.558Z,963.66
2019-03-04T01:15:04.535Z,963.72
2019-03-04T01:16:05.136Z,963.55
2019-03-04T01:17:05.045Z,963.61
2019-03-04T01:18:05.654Z,963.55
2019-03-04T01:19:04.626Z,963.55
2019-03-04T01:20:05.090Z,963.66
2019-03-04T01:21:05.132Z,963.78
2019-03-04T01:22:05.342Z,963.64
2019-03-04T01:23:04.609Z,963.66
2019-03-04T01:24:04.635Z,963.52
2019-03-04T01:25:05.147Z,963.63
2019-03-04T01:26:05.367Z,963.46
2019-03-04T01:27:05.250Z,963.52
2019-03-04T01:28:04.846Z,963.44
2019-03-04T01:29:10.328Z,963.46
2019-03-04T01:30:04.537Z,963.41
2019-03-04T01:31:04.468Z,963.55
2019-03-04T01:32:04.987Z,963.47
2019-03-04T01:33:05.384Z,963.38
2019-03-04T01:34:05.435Z,963.41
2019-03-04T01:35:04.479Z,963.55
2019-03-04T01:36:05.396Z,963.50
2019-03-04T01:37:04.528Z,963.50
2019-03-04T01:38:04.928Z,963.44
2019-03-04T01:39:05.364Z,963.39
2019-03-04T01:40:05.485Z,963.36
2019-03-04T01:41:04.722Z,963.36
2019-03-04T01:42:05.342Z,963.41
2019-03-04T01:43:05.233Z,963.38
2019-03-04T01:44:04.847Z,963.44
2019-03-04T01:45:04.797Z,963.44
2019-03-04T01:46:05.446Z,963.10
2019-03-04T01:47:05.310Z,963.15
2019-03-04T01:48:04.490Z,963.21
2019-03-04T01:49:05.163Z,963.04
2019-03-04T01:50:05.070Z,962.95
2019-03-04T01:51:04.587Z,962.98
2019-03-04T01:52:04.744Z,962.95
2019-03-04T01:53:04.714Z,962.89
2019-03-04T01:54:04.860Z,962.92
2019-03-04T01:55:05.187Z,962.97
2019-03-04T01:56:04.754Z,962.75
2019-03-04T01:57:05.269Z,962.77
2019-03-04T01:58:04.878Z,962.88
2019-03-04T01:59:05.146Z,962.74
2019-03-04T02:00:04.748Z,962.74
2019-03-04T02:01:05.091Z,962.54
2019-03-04T02:02:04.594Z,962.63
2019-03-04T02:03:05.179Z,962.77
2019-03-04T02:04:04.710Z,962.77
2019-03-04T02:05:05.270Z,962.48
2019-03-04T02:06:04.836Z,962.60
2019-03-04T02:07:05.198Z,962.77
2019-03-04T02:08:05.270Z,962.60
2019-03-04T02:09:04.664Z,962.57
2019-03-04T02:10:05.009Z,962.63
2019-03-04T02:11:05.084Z,962.44
2019-03-04T02:12:05.048Z,962.57
2019-03-04T02:13:05.318Z,962.55
2019-03-04T02:14:04.589Z,962.52
2019-03-04T02:15:05.032Z,962.52
2019-03-04T02:16:05.245Z,962.49
2019-03-04T02:17:04.413Z,962.55
2019-03-04T02:18:04.461Z,962.33
2019-03-04T02:19:04.688Z,962.49
2019-03-04T02:20:04.522Z,962.52
2019-03-04T02:21:04.813Z,962.42
2019-03-04T02:22:04.692Z,962.39
2019-03-04T02:23:05.048Z,962.48
2019-03-04T02:24:05.221Z,962.34
2019-03-04T02:25:05.393Z,962.15
2019-03-04T02:26:04.509Z,962.34
2019-03-04T02:27:04.389Z,962.20
2019-03-04T02:28:04.352Z,962.22
2019-03-04T02:29:04.454Z,962.15
2019-03-04T02:30:04.990Z,962.23
2019-03-04T02:31:05.204Z,962.20
2019-03-04T02:32:05.326Z,962.34
2019-03-04T02:33:04.846Z,962.37
2019-03-04T02:34:04.876Z,962.23
2019-03-04T02:35:05.087Z,962.32
2019-03-04T02:36:05.073Z,962.20
2019-03-04T02:37:04.750Z,962.23
2019-03-04T02:38:04.735Z,962.10
2019-03-04T02:39:04.730Z,962.35
2019-03-04T02:40:04.706Z,962.16
2019-03-04T02:41:04.679Z,961.99
2019-03-04T02:42:04.750Z,962.02
2019-03-04T02:43:05.247Z,962.11
2019-03-04T02:44:04.396Z,962.05
2019-03-04T02:45:04.711Z,961.97
2019-03-04T02:46:04.970Z,961.94
2019-03-04T02:47:04.402Z,961.94
2019-03-04T02:48:05.043Z,961.94
2019-03-04T02:49:10.272Z,961.86
2019-03-04T02:50:04.527Z,961.89
2019-03-04T02:51:04.550Z,961.94
2019-03-04T02:52:04.662Z,962.03
2019-03-04T02:53:04.638Z,962.00
2019-03-04T02:54:05.343Z,962.06
2019-03-04T02:55:04.713Z,962.11
2019-03-04T02:56:04.908Z,962.22
2019-03-04T02:57:04.987Z,962.19
2019-03-04T02:58:04.851Z,962.15
2019-03-04T02:59:04.975Z,961.95
2019-03-04T03:00:05.191Z,962.09
2019-03-04T03:01:05.131Z,961.98
2019-03-04T03:02:05.178Z,962.04
2019-03-04T03:03:04.760Z,962.04
2019-03-04T03:04:05.121Z,962.10
2019-03-04T03:05:05.007Z,962.15
2019-03-04T03:06:04.433Z,962.10
2019-03-04T03:07:04.963Z,962.04
2019-03-04T03:08:04.953Z,962.01
2019-03-04T03:09:05.270Z,962.01
2019-03-04T03:10:05.320Z,961.93
2019-03-04T03:11:04.611Z,961.93
2019-03-04T03:12:04.551Z,961.90
2019-03-04T03:13:04.694Z,961.96
2019-03-04T03:14:05.270Z,961.79
2019-03-04T03:15:05.295Z,961.84
2019-03-04T03:16:05.298Z,961.79
2019-03-04T03:17:05.374Z,961.79
2019-03-04T03:18:05.390Z,961.70
2019-03-04T03:19:04.600Z,961.59
2019-03-04T03:20:04.511Z,961.62
2019-03-04T03:21:04.582Z,961.61
2019-03-04T03:22:04.904Z,961.55
2019-03-04T03:23:05.102Z,961.55
2019-03-04T03:24:05.160Z,961.38
2019-03-04T03:25:05.205Z,961.43
2019-03-04T03:26:04.757Z,961.40
2019-03-04T03:27:04.747Z,961.39
2019-03-04T03:28:04.703Z,961.25
2019-03-04T03:29:09.732Z,961.30
2019-03-04T03:30:05.065Z,961.27
2019-03-04T03:31:05.048Z,961.35
2019-03-04T03:32:05.125Z,961.29
2019-03-04T03:33:05.141Z,961.27
2019-03-04T03:34:05.162Z,961.24
2019-03-04T03:35:08.999Z,961.23
2019-03-04T03:36:04.801Z,961.18
2019-03-04T03:37:04.806Z,961.23
2019-03-04T03:38:05.244Z,961.12
2019-03-04T03:39:05.227Z,961.17
2019-03-04T03:40:05.400Z,961.11
2019-03-04T03:41:04.580Z,961.14
2019-03-04T03:42:04.925Z,961.14
2019-03-04T03:43:04.988Z,961.31
2019-03-04T03:44:04.520Z,961.20
2019-03-04T03:45:04.424Z,961.37
2019-03-04T03:46:04.980Z,961.28
2019-03-04T03:47:04.941Z,961.34
2019-03-04T03:48:05.151Z,961.17
2019-03-04T03:49:04.755Z,961.26
2019-03-04T03:50:05.166Z,961.23
2019-03-04T03:51:04.709Z,961.34
2019-03-04T03:52:04.747Z,961.23
2019-03-04T03:53:05.199Z,961.40
2019-03-04T03:54:05.173Z,961.09
2019-03-04T03:55:05.534Z,961.06
2019-03-04T03:56:04.542Z,960.97
2019-03-04T03:57:09.591Z,961.14
2019-03-04T03:58:04.918Z,961.05
2019-03-04T03:59:04.904Z,961.03
2019-03-04T04:00:05.305Z,961.08
2019-03-04T04:01:04.453Z,961.20
2019-03-04T04:02:04.529Z,961.11
2019-03-04T04:03:04.619Z,961.05
2019-03-04T04:04:05.039Z,960.97
2019-03-04T04:05:04.604Z,961.14
2019-03-04T04:06:04.983Z,961.05
2019-03-04T04:07:05.231Z,961.08
2019-03-04T04:08:05.110Z,960.97
2019-03-04T04:09:04.562Z,961.00
2019-03-04T04:10:04.490Z,960.94
2019-03-04T04:11:04.734Z,960.88
2019-03-04T04:12:04.516Z,960.88
2019-03-04T04:13:04.566Z,960.78
2019-03-04T04:14:04.770Z,961.00
2019-03-04T04:15:05.173Z,960.91
2019-03-04T04:16:05.140Z,960.78
2019-03-04T04:17:04.833Z,960.82
2019-03-04T04:18:04.881Z,960.85
2019-03-04T04:19:05.046Z,960.88
2019-03-04T04:20:05.112Z,960.69
2019-03-04T04:21:05.155Z,960.85
2019-03-04T04:22:05.158Z,960.79
2019-03-04T04:23:04.792Z,960.57
2019-03-04T04:24:05.028Z,960.71
2019-03-04T04:25:05.157Z,960.69
2019-03-04T04:26:04.629Z,960.54
2019-03-04T04:27:05.365Z,960.68
2019-03-04T04:28:05.251Z,960.66
2019-03-04T04:29:05.280Z,960.54
2019-03-04T04:30:04.797Z,960.65
2019-03-04T04:31:09.758Z,960.60
2019-03-04T04:32:04.978Z,960.51
2019-03-04T04:33:04.935Z,960.51
2019-03-04T04:34:05.109Z,960.45
2019-03-04T04:35:04.607Z,960.57
2019-03-04T04:36:05.134Z,960.57
2019-03-04T04:37:04.789Z,960.65
2019-03-04T04:38:04.769Z,960.43
2019-03-04T04:39:05.255Z,960.59
2019-03-04T04:40:05.282Z,960.59
2019-03-04T04:41:05.384Z,960.37
2019-03-04T04:42:04.522Z,960.62
2019-03-04T04:43:05.202Z,960.54
2019-03-04T04:44:05.080Z,960.62
2019-03-04T04:45:05.083Z,960.62
2019-03-04T04:46:04.524Z,960.48
2019-03-04T04:47:05.244Z,960.39
2019-03-04T04:48:05.220Z,960.54
2019-03-04T04:49:05.258Z,960.54
2019-03-04T04:50:05.329Z,960.42
2019-03-04T04:51:04.677Z,960.42
2019-03-04T04:52:04.754Z,960.42
2019-03-04T04:53:05.005Z,960.45
2019-03-04T04:54:04.659Z,960.43
2019-03-04T04:55:05.048Z,960.43
2019-03-04T04:56:05.311Z,960.37
2019-03-04T04:57:05.395Z,960.37
2019-03-04T04:58:05.332Z,960.40
2019-03-04T04:59:05.096Z,960.37
2019-03-04T05:00:05.030Z,960.31
2019-03-04T05:01:05.056Z,960.26
2019-03-04T05:02:04.954Z,960.23
2019-03-04T05:03:04.617Z,960.25
2019-03-04T05:04:04.552Z,960.20
2019-03-04T05:05:04.519Z,960.31
2019-03-04T05:06:04.603Z,960.25
2019-03-04T05:07:05.040Z,960.20
2019-03-04T05:08:04.953Z,960.14
2019-03-04T05:09:05.113Z,960.20
2019-03-04T05:10:05.169Z,960.14
2019-03-04T05:11:04.630Z,960.19
2019-03-04T05:12:04.550Z,960.16
2019-03-04T05:13:04.829Z,960.08
2019-03-04T05:14:04.888Z,960.16
2019-03-04T05:15:05.337Z,960.02
2019-03-04T05:16:05.162Z,959.96
2019-03-04T05:17:04.828Z,960.05
2019-03-04T05:18:04.821Z,959.93
2019-03-04T05:19:04.801Z,959.82
2019-03-04T05:20:04.826Z,959.85
2019-03-04T05:21:04.962Z,959.71
2019-03-04T05:22:04.838Z,959.57
2019-03-04T05:23:04.839Z,959.48
2019-03-04T05:24:04.399Z,959.54
2019-03-04T05:25:04.851Z,959.46
2019-03-04T05:26:04.712Z,959.43
2019-03-04T05:27:05.062Z,959.37
2019-03-04T05:28:05.134Z,959.34
2019-03-04T05:29:10.183Z,959.40
2019-03-04T05:30:04.365Z,959.40
2019-03-04T05:31:04.816Z,959.28
2019-03-04T05:32:05.395Z,959.43
2019-03-04T05:33:05.381Z,959.40
2019-03-04T05:34:04.403Z,959.37
2019-03-04T05:35:04.432Z,959.51
2019-03-04T05:36:04.548Z,959.34
2019-03-04T05:37:04.605Z,959.48
2019-03-04T05:38:04.900Z,959.28
2019-03-04T05:39:04.792Z,959.45
2019-03-04T05:40:04.854Z,959.31
2019-03-04T05:41:05.196Z,959.28
2019-03-04T05:42:04.590Z,959.27
2019-03-04T05:43:04.619Z,959.36
2019-03-04T05:44:05.910Z,959.30
2019-03-04T05:45:05.344Z,959.33
2019-03-04T05:46:04.581Z,959.27
2019-03-04T05:47:04.643Z,959.49
2019-03-04T05:48:04.877Z,959.41
2019-03-04T05:49:10.239Z,959.46
2019-03-04T05:50:04.453Z,959.49
2019-03-04T05:51:05.170Z,959.55
2019-03-04T05:52:05.075Z,959.63
2019-03-04T05:53:04.702Z,959.60
2019-03-04T05:54:04.904Z,959.73
2019-03-04T05:55:04.799Z,959.87
2019-03-04T05:56:04.621Z,959.65
2019-03-04T05:57:05.168Z,959.78
2019-03-04T05:58:04.680Z,959.62
2019-03-04T05:59:06.018Z,959.78
2019-03-04T06:00:05.454Z,959.86
2019-03-04T06:01:04.381Z,959.83
2019-03-04T06:02:04.514Z,959.72
2019-03-04T06:03:05.031Z,959.71
2019-03-04T06:04:05.011Z,959.66
2019-03-04T06:05:04.576Z,959.66
2019-03-04T06:06:04.893Z,959.74
2019-03-04T06:07:05.208Z,959.66
2019-03-04T06:08:05.175Z,959.66
2019-03-04T06:09:05.375Z,959.54
2019-03-04T06:10:04.448Z,959.37
2019-03-04T06:11:04.785Z,959.22
2019-03-04T06:12:05.077Z,959.25
2019-03-04T06:13:05.049Z,959.28
2019-03-04T06:14:04.481Z,959.16
2019-03-04T06:15:04.863Z,959.06
2019-03-04T06:16:04.877Z,959.14
2019-03-04T06:17:04.811Z,959.19
2019-03-04T06:18:05.391Z,959.11
2019-03-04T06:19:05.336Z,959.09
2019-03-04T06:20:05.401Z,959.11
2019-03-04T06:21:04.379Z,959.16
2019-03-04T06:22:04.569Z,959.11
2019-03-04T06:23:04.649Z,959.16
2019-03-04T06:24:04.598Z,959.00
2019-03-04T06:25:07.901Z,959.00
2019-03-04T06:26:04.424Z,958.91
2019-03-04T06:27:04.401Z,958.82
2019-03-04T06:28:04.573Z,958.91
2019-03-04T06:29:04.643Z,958.94
2019-03-04T06:30:05.220Z,958.88
2019-03-04T06:31:09.505Z,958.94
2019-03-04T06:32:04.769Z,958.91
2019-03-04T06:33:05.401Z,958.71
2019-03-04T06:34:05.343Z,958.59
2019-03-04T06:35:04.438Z,958.62
2019-03-04T06:36:04.599Z,958.77
2019-03-04T06:37:04.650Z,958.82
2019-03-04T06:38:04.662Z,958.77
2019-03-04T06:39:04.576Z,958.88
2019-03-04T06:40:04.736Z,958.88
2019-03-04T06:41:05.274Z,958.88
2019-03-04T06:42:05.246Z,958.85
2019-03-04T06:43:04.382Z,958.94
2019-03-04T06:44:04.974Z,958.88
2019-03-04T06:45:04.964Z,958.82
2019-03-04T06:46:05.235Z,958.94
2019-03-04T06:47:04.658Z,958.77
2019-03-04T06:48:04.771Z,958.71
2019-03-04T06:49:04.651Z,958.57
2019-03-04T06:50:04.623Z,958.54
2019-03-04T06:51:05.138Z,958.51
2019-03-04T06:52:04.418Z,958.40
2019-03-04T06:53:04.638Z,958.28
2019-03-04T06:54:04.604Z,958.17
2019-03-04T06:55:05.203Z,958.25
2019-03-04T06:56:05.280Z,958.03
2019-03-04T06:57:05.426Z,957.94
2019-03-04T06:58:05.341Z,957.75
2019-03-04T06:59:04.852Z,957.94
2019-03-04T07:00:04.936Z,957.99
2019-03-04T07:01:05.162Z,957.85
2019-03-04T07:02:05.357Z,958.05
2019-03-04T07:03:05.341Z,957.79
2019-03-04T07:04:05.118Z,957.77
2019-03-04T07:05:10.127Z,957.72
2019-03-04T07:06:05.381Z,957.66
2019-03-04T07:07:04.790Z,957.54
2019-03-04T07:08:05.038Z,957.48
2019-03-04T07:09:05.133Z,957.51
2019-03-04T07:10:04.422Z,957.46
2019-03-04T07:11:04.421Z,957.51
2019-03-04T07:12:04.863Z,957.51
2019-03-04T07:13:05.233Z,957.59
2019-03-04T07:14:05.355Z,957.31
2019-03-04T07:15:05.248Z,957.31
2019-03-04T07:16:04.894Z,957.28
2019-03-04T07:17:04.587Z,957.19
2019-03-04T07:18:04.665Z,957.19
2019-03-04T07:19:05.318Z,957.06
2019-03-04T07:20:05.274Z,957.11
2019-03-04T07:21:05.471Z,956.74
2019-03-04T07:22:04.787Z,956.68
2019-03-04T07:23:05.369Z,956.51
2019-03-04T07:24:05.373Z,956.56
2019-03-04T07:25:04.690Z,956.48
2019-03-04T07:26:04.722Z,956.65
2019-03-04T07:27:05.051Z,956.50
2019-03-04T07:28:05.109Z,956.47
2019-03-04T07:29:05.131Z,956.56
2019-03-04T07:30:05.008Z,956.44
2019-03-04T07:31:04.980Z,956.50
2019-03-04T07:32:04.637Z,956.64
2019-03-04T07:33:04.535Z,956.56
2019-03-04T07:34:04.979Z,956.53
2019-03-04T07:35:05.384Z,956.50
2019-03-04T07:36:04.824Z,956.61
2019-03-04T07:37:04.709Z,956.87
2019-03-04T07:38:04.679Z,956.75
2019-03-04T07:39:09.703Z,956.67
2019-03-04T07:40:04.947Z,956.70
2019-03-04T07:41:04.839Z,956.67
2019-03-04T07:42:04.789Z,956.58
2019-03-04T07:43:05.002Z,956.52
2019-03-04T07:44:05.012Z,956.55
2019-03-04T07:45:04.572Z,956.51
2019-03-04T07:46:04.627Z,956.54
2019-03-04T07:47:04.518Z,956.36
2019-03-04T07:48:05.530Z,956.41
2019-03-04T07:49:05.455Z,956.41
2019-03-04T07:50:04.557Z,956.23
2019-03-04T07:51:04.672Z,956.30
2019-03-04T07:52:05.338Z,956.21
2019-03-04T07:53:04.484Z,956.32
2019-03-04T07:54:04.630Z,956.17
2019-03-04T07:55:04.854Z,956.33
2019-03-04T07:56:04.743Z,956.29
2019-03-04T07:57:04.768Z,956.20
2019-03-04T07:58:04.834Z,956.19
2019-03-04T07:59:04.772Z,956.13
2019-03-04T08:00:04.751Z,956.09
2019-03-04T08:01:04.912Z,956.09
2019-03-04T08:02:04.909Z,956.03
2019-03-04T08:03:05.003Z,956.16
2019-03-04T08:04:05.324Z,956.21
2019-03-04T08:05:05.367Z,956.26
2019-03-04T08:06:05.434Z,956.40
2019-03-04T08:07:04.423Z,956.28
2019-03-04T08:08:04.584Z,956.36
2019-03-04T08:09:04.996Z,956.41
2019-03-04T08:10:05.085Z,956.52
2019-03-04T08:11:05.301Z,956.43
2019-03-04T08:12:04.462Z,956.37
2019-03-04T08:13:04.579Z,956.28
2019-03-04T08:14:05.018Z,956.37
2019-03-04T08:15:05.370Z,956.50
2019-03-04T08:16:04.932Z,956.39
2019-03-04T08:17:05.049Z,956.47
2019-03-04T08:18:05.099Z,956.43
2019-03-04T08:19:05.207Z,956.57
2019-03-04T08:20:04.522Z,956.48
2019-03-04T08:21:04.529Z,956.53
2019-03-04T08:22:04.487Z,956.61
2019-03-04T08:23:04.880Z,956.47
2019-03-04T08:24:04.967Z,956.44
2019-03-04T08:25:05.361Z,956.48
2019-03-04T08:26:05.404Z,956.42
2019-03-04T08:27:05.393Z,956.45
2019-03-04T08:28:05.416Z,956.51
2019-03-04T08:29:04.436Z,956.40
2019-03-04T08:30:05.475Z,956.51
2019-03-04T08:31:04.446Z,956.65
2019-03-04T08:32:04.376Z,956.76
2019-03-04T08:33:04.509Z,956.79
2019-03-04T08:34:05.421Z,956.82
2019-03-04T08:35:05.410Z,956.74
2019-03-04T08:36:04.711Z,956.80
2019-03-04T08:37:04.793Z,956.83
2019-03-04T08:38:04.876Z,956.98
2019-03-04T08:39:05.259Z,956.95
2019-03-04T08:40:05.248Z,956.99
2019-03-04T08:41:05.237Z,957.29
2019-03-04T08:42:04.735Z,957.11
2019-03-04T08:43:05.272Z,957.16
2019-03-04T08:44:05.139Z,957.14
2019-03-04T08:45:04.600Z,957.09
2019-03-04T08:46:04.553Z,957.17
2019-03-04T08:47:04.789Z,957.21
2019-03-04T08:48:05.235Z,957.24
2019-03-04T08:49:04.846Z,956.99
2019-03-04T08:50:05.263Z,957.05
2019-03-04T08:51:04.453Z,957.05
2019-03-04T08:52:04.382Z,956.97
2019-03-04T08:53:05.364Z,957.24
2019-03-04T08:54:05.449Z,957.22
2019-03-04T08:55:04.401Z,957.22
2019-03-04T08:56:04.884Z,957.08
2019-03-04T08:57:05.044Z,957.19
2019-03-04T08:58:04.915Z,957.36
2019-03-04T08:59:04.855Z,957.25
2019-03-04T09:00:05.444Z,957.09
2019-03-04T09:01:05.355Z,957.28
2019-03-04T09:02:04.576Z,957.48
2019-03-04T09:03:04.470Z,957.36
2019-03-04T09:04:04.514Z,957.45
2019-03-04T09:05:04.694Z,957.03
2019-03-04T09:06:04.696Z,957.09
2019-03-04T09:07:09.653Z,957.19
2019-03-04T09:08:04.993Z,956.89
2019-03-04T09:09:04.968Z,956.86
2019-03-04T09:10:05.237Z,956.94
2019-03-04T09:11:04.571Z,957.03
2019-03-04T09:12:04.608Z,956.97
2019-03-04T09:13:04.949Z,956.74
2019-03-04T09:14:04.881Z,956.69
2019-03-04T09:15:04.830Z,956.55
2019-03-04T09:16:04.862Z,956.26
2019-03-04T09:17:04.765Z,956.52
2019-03-04T09:18:04.410Z,956.35
2019-03-04T09:19:04.523Z,956.46
2019-03-04T09:20:05.093Z,956.40
2019-03-04T09:21:05.261Z,956.23
2019-03-04T09:22:05.068Z,956.08
2019-03-04T09:23:04.534Z,956.08
2019-03-04T09:24:04.570Z,956.17
2019-03-04T09:25:04.635Z,956.11
2019-03-04T09:26:04.714Z,956.05
2019-03-04T09:27:04.757Z,956.10
2019-03-04T09:28:04.630Z,955.96
2019-03-04T09:29:09.778Z,955.70
2019-03-04T09:30:05.120Z,955.66
2019-03-04T09:31:04.460Z,955.83
2019-03-04T09:32:04.408Z,955.62
2019-03-04T09:33:04.634Z,955.56
2019-03-04T09:34:04.532Z,955.52
2019-03-04T09:35:05.090Z,955.29
2019-03-04T09:36:05.112Z,955.05
2019-03-04T09:37:05.260Z,954.90
2019-03-04T09:38:04.457Z,954.89
2019-03-04T09:39:05.342Z,954.74
2019-03-04T09:40:04.907Z,954.82
2019-03-04T09:41:04.830Z,954.60
2019-03-04T09:42:04.729Z,954.87
2019-03-04T09:43:05.181Z,954.84
2019-03-04T09:44:05.208Z,955.04
2019-03-04T09:45:04.861Z,955.01
2019-03-04T09:46:04.812Z,955.21
2019-03-04T09:47:04.969Z,955.27
2019-03-04T09:48:05.014Z,955.38
2019-03-04T09:49:04.513Z,955.24
2019-03-04T09:50:04.502Z,955.21
2019-03-04T09:51:04.604Z,955.12
2019-03-04T09:52:05.143Z,955.23
2019-03-04T09:53:05.001Z,955.43
2019-03-04T09:54:05.069Z,955.54
2019-03-04T09:55:05.198Z,955.40
2019-03-04T09:56:05.198Z,955.49
2019-03-04T09:57:05.301Z,955.37
2019-03-04T09:58:04.536Z,955.40
2019-03-04T09:59:04.901Z,955.43
2019-03-04T10:00:04.493Z,955.46
2019-03-04T10:01:05.346Z,955.43
2019-03-04T10:02:04.621Z,955.38
2019-03-04T10:03:04.538Z,955.29
2019-03-04T10:04:04.599Z,955.49
2019-03-04T10:05:04.481Z,955.47
2019-03-04T10:06:04.622Z,955.35
2019-03-04T10:07:04.923Z,955.47
2019-03-04T10:08:04.769Z,955.61
2019-03-04T10:09:04.828Z,955.29
2019-03-04T10:10:04.779Z,955.35
2019-03-04T10:11:05.290Z,955.41
2019-03-04T10:12:05.215Z,955.41
2019-03-04T10:13:04.589Z,955.46
2019-03-04T10:14:04.698Z,955.44
2019-03-04T10:15:09.250Z,955.61
2019-03-04T10:16:04.687Z,955.61
2019-03-04T10:17:04.822Z,955.47
2019-03-04T10:18:05.155Z,955.58
2019-03-04T10:19:04.572Z,955.61
2019-03-04T10:20:04.623Z,955.66
2019-03-04T10:21:04.708Z,955.78
2019-03-04T10:22:04.769Z,955.80
2019-03-04T10:23:04.955Z,955.52
2019-03-04T10:24:04.875Z,955.80
2019-03-04T10:25:04.882Z,955.43
2019-03-04T10:26:05.167Z,955.66
2019-03-04T10:27:05.312Z,955.77
2019-03-04T10:28:05.324Z,955.83
2019-03-04T10:29:09.944Z,955.74
2019-03-04T10:30:04.797Z,955.94
2019-03-04T10:31:05.264Z,955.62
2019-03-04T10:32:04.646Z,955.68
2019-03-04T10:33:04.603Z,955.65
2019-03-04T10:34:05.064Z,955.54
2019-03-04T10:35:05.146Z,955.54
2019-03-04T10:36:06.026Z,955.42
2019-03-04T10:37:05.422Z,955.54
2019-03-04T10:38:05.481Z,955.65
2019-03-04T10:39:05.286Z,955.64
2019-03-04T10:40:04.592Z,955.53
2019-03-04T10:41:05.208Z,955.56
2019-03-04T10:42:04.664Z,955.56
2019-03-04T10:43:05.012Z,955.70
2019-03-04T10:44:05.162Z,955.70
2019-03-04T10:45:05.337Z,955.55
2019-03-04T10:46:05.412Z,955.55
2019-03-04T10:47:04.358Z,955.81
2019-03-04T10:48:04.867Z,955.66
2019-03-04T10:49:05.029Z,955.66
2019-03-04T10:50:05.343Z,955.52
2019-03-04T10:51:04.757Z,955.54
2019-03-04T10:52:04.695Z,955.63
2019-03-04T10:53:04.636Z,955.75
2019-03-04T10:54:04.844Z,955.75
2019-03-04T10:55:04.961Z,955.60
2019-03-04T10:56:04.875Z,955.63
2019-03-04T10:57:04.876Z,955.63
2019-03-04T10:58:05.305Z,955.83
2019-03-04T10:59:05.138Z,955.60
2019-03-04T11:00:05.171Z,955.57
2019-03-04T11:01:04.480Z,955.56
2019-03-04T11:02:04.643Z,955.62
2019-03-04T11:03:05.190Z,955.65
2019-03-04T11:04:10.220Z,955.56
2019-03-04T11:05:04.574Z,955.59
2019-03-04T11:06:04.807Z,955.85
2019-03-04T11:07:04.747Z,955.59
2019-03-04T11:08:04.816Z,955.82
2019-03-04T11:09:04.908Z,955.68
2019-03-04T11:10:05.159Z,955.54
2019-03-04T11:11:05.104Z,955.71
2019-03-04T11:12:05.100Z,955.68
2019-03-04T11:13:05.095Z,955.80
2019-03-04T11:14:04.600Z,955.54
2019-03-04T11:15:04.582Z,955.77
2019-03-04T11:16:04.608Z,956.04
2019-03-04T11:17:05.102Z,955.92
2019-03-04T11:18:05.124Z,955.99
2019-03-04T11:19:05.169Z,956.09
2019-03-04T11:20:05.019Z,955.76
2019-03-04T11:21:04.970Z,955.93
2019-03-04T11:22:04.877Z,955.80
2019-03-04T11:23:04.978Z,956.10
2019-03-04T11:24:04.760Z,956.34
2019-03-04T11:25:04.798Z,956.17
2019-03-04T11:26:04.713Z,956.37
2019-03-04T11:27:05.127Z,956.23
2019-03-04T11:28:04.476Z,956.12
2019-03-04T11:29:04.846Z,956.09
2019-03-04T11:30:04.792Z,956.06
2019-03-04T11:31:04.731Z,955.99
2019-03-04T11:32:05.123Z,955.95
2019-03-04T11:33:05.017Z,956.04
2019-03-04T11:34:04.930Z,956.08
2019-03-04T11:35:04.888Z,956.03
2019-03-04T11:36:05.259Z,955.94
2019-03-04T11:37:05.258Z,956.05
2019-03-04T11:38:10.150Z,956.13
2019-03-04T11:39:05.328Z,956.07
2019-03-04T11:40:04.905Z,956.07
2019-03-04T11:41:05.392Z,956.05
2019-03-04T11:42:05.334Z,955.87
2019-03-04T11:43:05.281Z,956.12
2019-03-04T11:44:05.362Z,956.07
2019-03-04T11:45:04.656Z,955.94
2019-03-04T11:46:04.964Z,955.94
2019-03-04T11:47:04.483Z,955.97
2019-03-04T11:48:04.474Z,955.86
2019-03-04T11:49:04.530Z,955.78
2019-03-04T11:50:04.686Z,955.99
2019-03-04T11:51:04.738Z,955.88
2019-03-04T11:52:05.265Z,956.03
2019-03-04T11:53:05.066Z,956.03
2019-03-04T11:54:04.519Z,956.01
2019-03-04T11:55:05.465Z,956.06
2019-03-04T11:56:04.383Z,955.93
2019-03-04T11:57:04.877Z,956.02
2019-03-04T11:58:05.178Z,955.93
2019-03-04T11:59:05.200Z,956.05
2019-03-04T12:00:05.343Z,956.03
2019-03-04T12:01:05.202Z,956.03
2019-03-04T12:02:05.099Z,956.00
2019-03-04T12:03:04.395Z,955.66
2019-03-04T12:04:05.370Z,955.86
2019-03-04T12:05:04.777Z,955.84
2019-03-04T12:06:04.819Z,956.04
2019-03-04T12:07:04.814Z,956.05
2019-03-04T12:08:04.692Z,956.21
2019-03-04T12:09:04.676Z,956.30
2019-03-04T12:10:04.786Z,956.30
2019-03-04T12:11:04.951Z,956.27
2019-03-04T12:12:04.994Z,956.36
2019-03-04T12:13:04.875Z,956.39
2019-03-04T12:14:04.384Z,956.25
2019-03-04T12:15:04.747Z,956.28
2019-03-04T12:16:04.658Z,956.51
2019-03-04T12:17:04.695Z,956.35
2019-03-04T12:18:04.698Z,956.32
2019-03-04T12:19:05.087Z,956.33
2019-03-04T12:20:04.541Z,956.41
2019-03-04T12:21:04.836Z,956.25
2019-03-04T12:22:05.305Z,956.36
2019-03-04T12:23:05.206Z,956.28
2019-03-04T12:24:04.722Z,956.25
2019-03-04T12:25:04.947Z,956.20
2019-03-04T12:26:05.196Z,956.14
2019-03-04T12:27:05.040Z,956.14
2019-03-04T12:28:04.976Z,956.18